Time;durP1;ratioP1;P1;durP2;ratioP2;P2;SDS_P1;SDS_P2;PMS_P1;PMS_P2;Temp;Humidity;BMP_temperature;BMP_pressure;BME280_temperature;BME280_humidity;BME280_pressure;Samples;Min_cycle;Max_cycle;Signal;HPM_P1;HPM_P2
2021/09/18 00:01:47;;;;;;;5.68;5.15;;;10.50;99.90;;;;;;5069448;28;20200;-73
2021/09/18 00:04:14;;;;;;;8.18;5.35;;;10.50;99.90;;;;;;5057889;28;20207;-73
2021/09/18 00:06:41;;;;;;;5.28;4.70;;;10.50;99.90;;;;;;5067368;28;20261;-73
2021/09/18 00:09:09;;;;;;;8.10;4.93;;;10.50;99.90;;;;;;5069731;28;20228;-73
2021/09/18 00:11:35;;;;;;;8.85;5.30;;;10.50;99.90;;;;;;5070109;28;20196;-73
2021/09/18 00:14:02;;;;;;;6.15;5.55;;;10.50;99.90;;;;;;5068077;28;20227;-73
2021/09/18 00:16:29;;;;;;;6.30;4.82;;;10.40;99.90;;;;;;5049690;28;20205;-73
2021/09/18 00:18:56;;;;;;;5.68;4.70;;;10.50;99.90;;;;;;5049643;28;20225;-73
2021/09/18 00:21:22;;;;;;;6.18;5.57;;;10.40;99.90;;;;;;5049017;28;20212;-73
2021/09/18 00:23:49;;;;;;;5.40;4.90;;;10.40;99.90;;;;;;5049663;28;20208;-73
2021/09/18 00:26:17;;;;;;;5.18;4.78;;;10.40;99.90;;;;;;5049009;28;20247;-73
2021/09/18 00:28:44;;;;;;;4.93;4.43;;;10.40;99.90;;;;;;5049802;28;20221;-73
2021/09/18 00:31:11;;;;;;;5.38;4.65;;;10.30;99.90;;;;;;5049683;28;20205;-73
2021/09/18 00:33:37;;;;;;;5.85;5.10;;;10.30;99.90;;;;;;5047922;28;20205;-73
2021/09/18 00:36:04;;;;;;;6.75;4.75;;;10.30;99.90;;;;;;5047463;28;20223;-73
2021/09/18 00:38:31;;;;;;;5.60;5.07;;;10.30;99.90;;;;;;5047849;28;20790;-73
2021/09/18 00:40:58;;;;;;;6.07;5.53;;;10.20;99.90;;;;;;5048035;28;20216;-73
2021/09/18 00:43:26;;;;;;;6.10;5.60;;;10.20;99.90;;;;;;5047432;28;20267;-73
2021/09/18 00:45:53;;;;;;;5.00;4.43;;;10.20;99.90;;;;;;5047015;28;20217;-73
2021/09/18 00:48:19;;;;;;;5.75;5.03;;;10.20;99.90;;;;;;5047404;28;20259;-73
2021/09/18 00:50:46;;;;;;;6.63;5.10;;;10.20;99.90;;;;;;5047755;28;20622;-73
2021/09/18 00:53:13;;;;;;;5.25;4.75;;;10.20;99.90;;;;;;5047474;28;20205;-73
2021/09/18 00:55:43;;;;;;;7.70;4.72;;;10.10;99.90;;;;;;5046928;28;20216;-73
2021/09/18 00:58:10;;;;;;;6.20;5.55;;;10.10;99.90;;;;;;5047518;28;20229;-73
2021/09/18 01:00:38;;;;;;;6.55;5.15;;;10.10;99.90;;;;;;5047016;28;20216;-73
2021/09/18 01:03:04;;;;;;;5.43;4.93;;;10.10;99.90;;;;;;5047759;28;20547;-73
2021/09/18 01:05:31;;;;;;;6.07;5.30;;;10.10;99.90;;;;;;5046773;28;20201;-73
2021/09/18 01:07:59;;;;;;;8.10;7.30;;;10.10;99.90;;;;;;5047542;28;20344;-73
2021/09/18 01:10:26;;;;;;;5.90;5.40;;;10.10;99.90;;;;;;5047473;28;20223;-73
2021/09/18 01:13:12;;;;;;;6.07;5.10;;;10.10;99.90;;;;;;5047671;28;20201;-73
2021/09/18 01:15:40;;;;;;;5.60;5.05;;;10.00;99.90;;;;;;5046665;28;20205;-72
2021/09/18 01:18:08;;;;;;;8.57;5.32;;;10.00;99.90;;;;;;5047477;28;20221;-73
2021/09/18 01:20:36;;;;;;;6.38;5.60;;;10.00;99.90;;;;;;5047468;28;20989;-73
2021/09/18 01:25:40;;;;;;;6.20;5.60;;;10.00;99.90;;;;;;5061815;28;21846;-68
2021/09/18 01:28:08;;;;;;;8.35;5.00;;;10.00;99.90;;;;;;5052924;28;20244;-68
2021/09/18 01:30:36;;;;;;;5.35;4.85;;;10.00;99.90;;;;;;5049813;28;20722;-68
2021/09/18 01:33:04;;;;;;;6.18;5.57;;;10.00;99.90;;;;;;5050106;28;20567;-68
2021/09/18 01:35:32;;;;;;;5.50;5.00;;;10.00;99.90;;;;;;5049591;28;20208;-68
2021/09/18 01:37:59;;;;;;;6.65;5.07;;;10.10;99.90;;;;;;5050312;28;20216;-68
2021/09/18 01:40:28;;;;;;;9.95;5.63;;;10.00;99.90;;;;;;5050139;28;20205;-67
2021/09/18 01:42:57;;;;;;;7.75;5.43;;;10.00;99.90;;;;;;5050113;28;20213;-68
2021/09/18 01:45:24;;;;;;;6.00;5.40;;;10.00;99.90;;;;;;5049241;28;20205;-68
2021/09/18 01:47:53;;;;;;;9.98;5.63;;;10.00;99.90;;;;;;5049950;28;20606;-68
2021/09/18 01:50:28;;;;;;;7.25;5.70;;;10.00;99.90;;;;;;5049619;28;20205;-68
2021/09/18 01:52:56;;;;;;;6.80;5.78;;;9.90;99.90;;;;;;5050166;28;20201;-68
2021/09/18 01:55:23;;;;;;;8.02;6.00;;;9.90;99.90;;;;;;5051837;28;20201;-68
2021/09/18 01:57:51;;;;;;;6.47;5.88;;;9.90;99.90;;;;;;5050008;28;20217;-68
2021/09/18 02:00:21;;;;;;;5.88;5.18;;;9.80;99.90;;;;;;5049707;28;20203;-68
2021/09/18 02:02:48;;;;;;;5.70;5.10;;;9.80;99.90;;;;;;5049697;28;20209;-68
2021/09/18 02:05:17;;;;;;;5.70;5.20;;;9.80;99.90;;;;;;5049354;28;20911;-68
2021/09/18 02:07:44;;;;;;;5.68;5.00;;;9.70;99.90;;;;;;5049352;28;20232;-68
2021/09/18 02:10:13;;;;;;;7.18;5.80;;;9.70;99.90;;;;;;5049943;28;20573;-69
2021/09/18 02:12:40;;;;;;;7.30;6.22;;;9.70;99.90;;;;;;5051487;28;20230;-69
2021/09/18 02:15:09;;;;;;;9.80;6.38;;;9.70;99.90;;;;;;5053137;28;20208;-69
2021/09/18 02:17:39;;;;;;;10.07;6.80;;;9.70;99.90;;;;;;5053345;28;20927;-69
2021/09/18 02:20:08;;;;;;;7.03;6.10;;;9.70;99.90;;;;;;5053238;28;20197;-69
2021/09/18 02:22:34;;;;;;;7.47;6.53;;;9.60;99.90;;;;;;5053444;28;20201;-69
2021/09/18 02:25:01;;;;;;;7.53;6.60;;;9.70;99.90;;;;;;5052405;28;20629;-69
2021/09/18 02:27:28;;;;;;;9.50;7.20;;;9.70;99.90;;;;;;5053173;28;20221;-69
2021/09/18 02:29:54;;;;;;;8.68;7.72;;;9.70;99.90;;;;;;5052997;28;20641;-68
2021/09/18 02:32:21;;;;;;;8.07;7.10;;;9.60;99.90;;;;;;5053255;28;20197;-68
2021/09/18 02:34:49;;;;;;;8.40;7.05;;;9.60;99.90;;;;;;5052469;28;20209;-69
2021/09/18 02:37:16;;;;;;;12.75;7.85;;;9.60;99.90;;;;;;5053007;28;20197;-69
2021/09/18 02:39:43;;;;;;;9.40;6.85;;;9.60;99.90;;;;;;5052999;28;20208;-69
2021/09/18 02:42:10;;;;;;;9.30;7.55;;;9.60;99.90;;;;;;5052990;28;20204;-69
2021/09/18 02:44:37;;;;;;;8.20;7.40;;;9.60;99.90;;;;;;5052448;28;20197;-69
2021/09/18 02:47:04;;;;;;;7.65;6.70;;;9.60;99.90;;;;;;5052639;28;20240;-69
2021/09/18 02:49:31;;;;;;;9.52;7.95;;;9.60;99.90;;;;;;5052625;28;20731;-69
2021/09/18 02:51:59;;;;;;;9.63;8.07;;;9.60;99.90;;;;;;5052750;28;20236;-69
2021/09/18 02:54:25;;;;;;;9.57;7.90;;;9.50;99.90;;;;;;5052378;28;20208;-69
2021/09/18 02:56:52;;;;;;;13.05;8.65;;;9.50;99.90;;;;;;5052525;28;20197;-69
2021/09/18 02:59:19;;;;;;;10.85;8.15;;;9.50;99.90;;;;;;5052598;28;20272;-69
2021/09/18 03:01:46;;;;;;;12.05;8.48;;;9.50;99.90;;;;;;5052596;28;20200;-69
2021/09/18 03:04:12;;;;;;;10.93;8.80;;;9.40;99.90;;;;;;5052588;28;20212;-69
2021/09/18 03:06:39;;;;;;;14.35;8.73;;;9.50;99.90;;;;;;5051862;28;20213;-69
2021/09/18 03:09:07;;;;;;;12.57;9.15;;;9.50;99.90;;;;;;5052368;28;20712;-69
2021/09/18 03:11:34;;;;;;;11.13;8.82;;;9.50;99.90;;;;;;5052358;28;20208;-69
2021/09/18 03:14:00;;;;;;;14.27;9.27;;;9.40;99.90;;;;;;5052195;28;20591;-69
2021/09/18 03:16:27;;;;;;;13.98;8.80;;;9.40;99.90;;;;;;5051781;28;20687;-69
2021/09/18 03:18:54;;;;;;;10.35;8.02;;;9.40;99.90;;;;;;5051795;28;20221;-69
2021/09/18 03:21:21;;;;;;;9.55;8.20;;;9.40;99.90;;;;;;5052265;28;20255;-69
2021/09/18 03:23:47;;;;;;;10.20;8.68;;;9.40;99.90;;;;;;5051544;28;20215;-69
2021/09/18 03:26:16;;;;;;;9.30;8.40;;;9.40;99.90;;;;;;5051591;28;20579;-69
2021/09/18 03:28:42;;;;;;;10.95;8.07;;;9.40;99.90;;;;;;5051986;28;20225;-69
2021/09/18 03:31:09;;;;;;;8.70;7.40;;;9.30;99.90;;;;;;5051921;28;20967;-69
2021/09/18 03:33:36;;;;;;;7.85;7.10;;;9.30;99.90;;;;;;5052072;28;20197;-69
2021/09/18 03:36:03;;;;;;;9.90;8.38;;;9.30;99.90;;;;;;5051308;28;20636;-69
2021/09/18 03:38:30;;;;;;;13.75;8.23;;;9.30;99.90;;;;;;5051885;28;20221;-69
2021/09/18 03:40:56;;;;;;;10.25;7.97;;;9.30;99.90;;;;;;5051628;28;20197;-69
2021/09/18 03:43:24;;;;;;;10.45;7.60;;;9.40;99.90;;;;;;5051885;28;20703;-69
2021/09/18 03:45:52;;;;;;;8.13;6.97;;;9.40;99.90;;;;;;5050874;28;20201;-69
2021/09/18 03:48:19;;;;;;;9.38;8.35;;;9.30;99.90;;;;;;5051187;28;20295;-69
2021/09/18 03:50:45;;;;;;;9.93;8.02;;;9.30;99.90;;;;;;5051349;28;20201;-69
2021/09/18 03:53:12;;;;;;;10.52;7.65;;;9.30;99.90;;;;;;5049613;28;20556;-69
2021/09/18 03:55:39;;;;;;;9.45;7.60;;;9.30;99.90;;;;;;5051141;28;20208;-69
2021/09/18 03:58:06;;;;;;;11.60;7.80;;;9.20;99.90;;;;;;5050279;28;20223;-69
2021/09/18 04:00:34;;;;;;;10.52;7.50;;;9.20;99.90;;;;;;5050819;28;20673;-69
2021/09/18 04:03:01;;;;;;;10.02;8.68;;;9.30;99.90;;;;;;5050858;28;20552;-69
2021/09/18 04:05:27;;;;;;;9.52;8.27;;;9.20;99.90;;;;;;5051072;28;20201;-69
2021/09/18 04:07:54;;;;;;;8.48;7.55;;;9.20;99.90;;;;;;5051182;28;20233;-69
2021/09/18 04:10:21;;;;;;;10.07;7.60;;;9.20;99.90;;;;;;5051325;28;20212;-69
2021/09/18 04:12:47;;;;;;;8.30;7.45;;;9.20;99.90;;;;;;5051330;28;20217;-69
2021/09/18 04:15:14;;;;;;;10.40;7.40;;;9.10;99.90;;;;;;5050283;28;20262;-69
2021/09/18 04:17:42;;;;;;;8.95;7.45;;;9.10;99.90;;;;;;5050952;28;20223;-69
2021/09/18 04:20:10;;;;;;;9.52;7.63;;;9.10;99.90;;;;;;5051084;28;20201;-69
2021/09/18 04:22:36;;;;;;;12.82;9.10;;;9.10;99.90;;;;;;5051076;28;20205;-69
2021/09/18 04:25:04;;;;;;;9.32;7.40;;;9.00;99.90;;;;;;5050370;28;20224;-69
2021/09/18 04:27:30;;;;;;;10.35;8.98;;;9.10;99.90;;;;;;5050541;28;20596;-69
2021/09/18 04:29:57;;;;;;;11.02;7.75;;;9.00;99.90;;;;;;5051114;28;20201;-69
2021/09/18 04:32:24;;;;;;;12.48;8.40;;;9.00;99.90;;;;;;5050515;28;20208;-69
2021/09/18 04:34:52;;;;;;;8.38;6.88;;;9.00;99.90;;;;;;5049766;28;20208;-69
2021/09/18 04:37:19;;;;;;;7.88;6.88;;;9.00;99.90;;;;;;5050770;28;20208;-69
2021/09/18 04:39:45;;;;;;;9.38;7.50;;;8.90;99.90;;;;;;5050702;28;20208;-69
2021/09/18 04:42:12;;;;;;;9.80;7.40;;;8.90;99.90;;;;;;5050697;28;20205;-69
2021/09/18 04:44:39;;;;;;;8.60;7.35;;;8.90;99.90;;;;;;5049856;28;20680;-69
2021/09/18 04:47:06;;;;;;;8.38;7.45;;;8.90;99.90;;;;;;5050584;28;20228;-69
2021/09/18 04:49:32;;;;;;;10.02;7.05;;;8.90;99.90;;;;;;5050328;28;20226;-69
2021/09/18 04:52:00;;;;;;;10.15;7.75;;;8.90;99.90;;;;;;5050721;28;20209;-68
2021/09/18 04:54:27;;;;;;;7.50;6.70;;;8.90;99.90;;;;;;5050330;28;20224;-69
2021/09/18 04:56:54;;;;;;;8.80;7.68;;;8.90;99.90;;;;;;5050272;28;20197;-69
2021/09/18 04:59:21;;;;;;;9.75;7.88;;;8.90;99.90;;;;;;5050422;28;20597;-69
2021/09/18 05:01:47;;;;;;;9.05;7.30;;;8.80;99.90;;;;;;5055459;28;20580;-69
2021/09/18 05:04:14;;;;;;;9.00;6.70;;;8.80;99.90;;;;;;5060731;28;20219;-68
2021/09/18 05:06:41;;;;;;;10.70;7.80;;;8.80;99.90;;;;;;5067525;28;20684;-68
2021/09/18 05:09:09;;;;;;;9.88;7.93;;;8.80;99.90;;;;;;5070202;28;20224;-68
2021/09/18 05:11:35;;;;;;;11.15;7.78;;;8.80;99.90;;;;;;5070335;28;20207;-69
2021/09/18 05:14:02;;;;;;;8.68;7.28;;;8.80;99.90;;;;;;5070339;28;20197;-69
2021/09/18 05:16:29;;;;;;;8.30;7.22;;;8.80;99.90;;;;;;5069574;28;20200;-69
2021/09/18 05:18:56;;;;;;;7.57;6.65;;;8.90;99.90;;;;;;5069991;28;20220;-68
2021/09/18 05:21:23;;;;;;;7.88;6.65;;;8.90;99.90;;;;;;5070186;28;20821;-68
2021/09/18 05:23:50;;;;;;;8.68;7.78;;;8.90;99.90;;;;;;5070143;28;20216;-68
2021/09/18 05:26:18;;;;;;;8.60;7.75;;;8.90;99.90;;;;;;5069612;28;20205;-68
2021/09/18 05:28:44;;;;;;;12.60;8.77;;;8.90;99.90;;;;;;5070168;28;20227;-68
2021/09/18 05:31:11;;;;;;;9.77;8.55;;;8.90;99.90;;;;;;5069892;28;20287;-68
2021/09/18 05:33:38;;;;;;;11.23;8.75;;;8.90;99.90;;;;;;5070423;28;20208;-68
2021/09/18 05:36:05;;;;;;;8.32;6.70;;;8.90;99.90;;;;;;5069555;28;20211;-68
2021/09/18 05:38:31;;;;;;;8.70;7.55;;;9.00;99.90;;;;;;5070218;28;20936;-68
2021/09/18 05:40:58;;;;;;;8.55;7.55;;;8.90;99.90;;;;;;5070010;28;20208;-68
2021/09/18 05:43:26;;;;;;;8.10;7.00;;;9.00;99.90;;;;;;5069932;28;20212;-68
2021/09/18 05:45:53;;;;;;;9.30;7.22;;;9.00;99.90;;;;;;5070028;28;20207;-68
2021/09/18 05:48:20;;;;;;;9.70;8.05;;;9.00;99.90;;;;;;5073770;28;20231;-68
2021/09/18 05:50:46;;;;;;;9.25;7.72;;;9.00;99.90;;;;;;5074234;28;20203;-68
2021/09/18 05:53:14;;;;;;;8.05;7.20;;;9.10;99.90;;;;;;5073477;28;20215;-68
2021/09/18 05:55:41;;;;;;;10.55;9.45;;;9.10;99.90;;;;;;5072306;28;20458;-68
2021/09/18 05:58:07;;;;;;;9.05;8.15;;;9.20;99.90;;;;;;5073288;28;20224;-68
2021/09/18 06:00:35;;;;;;;8.40;6.93;;;9.30;99.90;;;;;;5073584;28;20208;-67
2021/09/18 06:03:02;;;;;;;8.40;7.45;;;9.30;99.90;;;;;;5073610;28;20197;-68
2021/09/18 06:05:29;;;;;;;8.27;7.20;;;9.30;99.90;;;;;;5073018;28;20211;-68
2021/09/18 06:07:56;;;;;;;9.10;7.10;;;9.40;99.90;;;;;;5073603;28;20220;-68
2021/09/18 06:10:22;;;;;;;8.00;7.18;;;9.40;99.90;;;;;;5073266;28;20212;-68
2021/09/18 06:12:49;;;;;;;8.45;7.03;;;9.50;99.90;;;;;;5073443;28;20201;-68
2021/09/18 06:15:16;;;;;;;10.40;8.35;;;9.50;99.90;;;;;;5072655;28;20201;-68
2021/09/18 06:17:44;;;;;;;9.70;7.80;;;9.60;99.90;;;;;;5073268;28;20593;-68
2021/09/18 06:20:12;;;;;;;9.88;8.32;;;9.60;99.90;;;;;;5073558;28;20228;-68
2021/09/18 06:22:38;;;;;;;8.68;7.47;;;9.60;99.90;;;;;;5073227;28;20197;-68
2021/09/18 06:25:09;;;;;;;9.65;7.70;;;9.70;99.90;;;;;;5072659;28;20208;-68
2021/09/18 06:27:36;;;;;;;10.45;7.10;;;9.80;99.90;;;;;;5072997;28;20220;-68
2021/09/18 06:30:03;;;;;;;8.52;7.13;;;9.80;99.90;;;;;;5073249;28;20201;-68
2021/09/18 06:32:30;;;;;;;8.55;7.65;;;9.90;99.90;;;;;;5073424;28;20559;-68
2021/09/18 06:34:58;;;;;;;8.65;7.75;;;10.00;99.90;;;;;;5072436;28;20208;-68
2021/09/18 06:37:24;;;;;;;8.23;6.93;;;10.20;99.90;;;;;;5072852;28;20200;-68
2021/09/18 06:39:51;;;;;;;8.32;7.47;;;10.20;99.90;;;;;;5072673;28;20207;-68
2021/09/18 06:42:18;;;;;;;8.55;7.75;;;10.30;99.90;;;;;;5073225;28;20223;-68
2021/09/18 06:44:45;;;;;;;8.90;8.00;;;10.50;99.90;;;;;;5072375;28;20208;-67
2021/09/18 06:47:11;;;;;;;8.57;7.30;;;10.50;99.90;;;;;;5072190;28;20207;-67
2021/09/18 06:49:38;;;;;;;9.50;8.60;;;10.70;99.90;;;;;;5073096;28;20247;-67
2021/09/18 06:52:07;;;;;;;8.90;8.10;;;10.80;99.90;;;;;;5072759;28;20204;-68
2021/09/18 06:54:34;;;;;;;11.88;10.35;;;10.90;99.90;;;;;;5072649;28;20549;-68
2021/09/18 06:57:00;;;;;;;9.93;8.93;;;11.00;99.90;;;;;;5072164;28;20205;-68
2021/09/18 06:59:27;;;;;;;11.45;10.30;;;11.20;99.90;;;;;;5071686;28;20227;-67
2021/09/18 07:01:54;;;;;;;11.00;9.90;;;11.30;99.90;;;;;;5072712;28;20208;-68
2021/09/18 07:04:20;;;;;;;12.98;10.07;;;11.50;99.90;;;;;;5072180;28;20211;-68
2021/09/18 07:06:47;;;;;;;13.82;10.95;;;11.60;99.90;;;;;;5072277;28;20215;-67
2021/09/18 07:09:15;;;;;;;11.07;9.95;;;11.70;99.90;;;;;;5072159;28;20303;-68
2021/09/18 07:11:42;;;;;;;10.95;9.52;;;12.00;99.90;;;;;;5072398;28;20678;-67
2021/09/18 07:14:08;;;;;;;11.30;9.93;;;12.20;99.90;;;;;;5072274;28;20219;-68
2021/09/18 07:16:35;;;;;;;11.15;9.10;;;12.50;99.90;;;;;;5071720;28;20209;-68
2021/09/18 07:19:02;;;;;;;10.82;9.82;;;12.80;99.90;;;;;;5072012;28;20598;-68
2021/09/18 07:21:28;;;;;;;9.48;8.57;;;13.10;99.90;;;;;;5069838;28;20197;-68
2021/09/18 07:23:55;;;;;;;10.68;9.60;;;13.40;99.90;;;;;;5064888;28;20668;-68
2021/09/18 07:26:23;;;;;;;8.02;7.22;;;13.70;99.90;;;;;;5071103;28;20204;-67
2021/09/18 07:28:50;;;;;;;9.33;8.43;;;13.90;99.90;;;;;;5071779;28;20229;-68
2021/09/18 07:31:17;;;;;;;8.67;7.87;;;14.20;99.90;;;;;;5071823;28;20454;-67
2021/09/18 07:33:43;;;;;;;8.20;7.30;;;14.40;99.90;;;;;;5071791;28;20469;-67
2021/09/18 07:36:10;;;;;;;8.17;6.90;;;14.60;99.90;;;;;;5071446;28;20848;-69
2021/09/18 07:38:38;;;;;;;8.07;7.27;;;14.90;99.90;;;;;;5071646;28;20467;-68
2021/09/18 07:41:04;;;;;;;9.23;8.23;;;15.10;99.90;;;;;;5127556;23;20494;-69
2021/09/18 07:43:32;;;;;;;7.47;6.77;;;15.50;99.90;;;;;;5071222;28;20459;-72
2021/09/18 07:46:01;;;;;;;7.77;7.07;;;15.80;99.90;;;;;;5070910;28;20526;-72
2021/09/18 07:48:28;;;;;;;8.40;7.60;;;16.00;99.90;;;;;;5071354;28;20491;-72
2021/09/18 07:50:54;;;;;;;8.03;7.23;;;16.20;99.90;;;;;;5071413;28;20462;-72
2021/09/18 07:53:21;;;;;;;7.53;6.93;;;16.40;99.90;;;;;;5070922;28;20463;-72
2021/09/18 07:55:48;;;;;;;6.03;5.43;;;16.60;99.90;;;;;;5070820;28;20454;-72
2021/09/18 07:58:15;;;;;;;12.57;7.40;;;16.70;99.90;;;;;;5071253;28;20897;-72
2021/09/18 08:00:43;;;;;;;10.80;6.87;;;16.80;99.90;;;;;;5071248;28;20469;-72
2021/09/18 08:03:10;;;;;;;9.87;6.73;;;16.90;99.90;;;;;;5070922;28;20815;-72
2021/09/18 08:05:37;;;;;;;6.40;5.80;;;17.10;99.90;;;;;;5070714;28;20466;-72
2021/09/18 08:08:13;;;;;;;5.67;5.17;;;17.30;99.90;;;;;;5070943;28;21010;-72
2021/09/18 08:10:39;;;;;;;5.83;4.80;;;17.50;99.90;;;;;;5069676;28;20561;-72
2021/09/18 08:13:10;;;;;;;9.30;5.40;;;17.60;99.90;;;;;;5070969;28;20845;-72
2021/09/18 08:15:37;;;;;;;7.03;5.20;;;17.70;99.90;;;;;;5070384;28;20569;-72
2021/09/18 08:18:05;;;;;;;6.80;5.20;;;17.90;99.90;;;;;;5071120;28;20834;-72
2021/09/18 08:20:32;;;;;;;5.87;5.00;;;18.10;99.90;;;;;;5070588;28;20463;-72
2021/09/18 08:22:59;;;;;;;7.50;6.30;;;18.20;99.90;;;;;;5070457;28;20489;-72
2021/09/18 08:25:26;;;;;;;5.93;5.43;;;18.30;99.90;;;;;;5070421;28;20463;-72
2021/09/18 08:27:53;;;;;;;5.37;4.97;;;18.40;99.90;;;;;;5070403;28;20485;-72
2021/09/18 08:30:20;;;;;;;5.60;5.10;;;18.40;99.90;;;;;;5070603;28;20693;-71
2021/09/18 08:32:47;;;;;;;4.63;4.30;;;18.50;99.90;;;;;;5070233;28;20462;-73
2021/09/18 08:35:15;;;;;;;6.20;5.70;;;18.60;99.90;;;;;;5070149;28;21023;-72
2021/09/18 08:37:42;;;;;;;6.03;5.43;;;18.70;99.90;;;;;;5069755;28;20478;-73
2021/09/18 08:40:10;;;;;;;5.80;5.30;;;18.70;99.90;;;;;;5070106;28;20473;-77
2021/09/18 08:42:40;;;;;;;5.43;4.93;;;18.80;99.90;;;;;;5068710;28;20832;-74
2021/09/18 08:45:10;;;;;;;6.23;5.73;;;18.90;99.90;;;;;;5048712;28;20490;-74
2021/09/18 08:47:40;;;;;;;6.53;5.40;;;19.00;99.90;;;;;;5069008;28;20481;-75
2021/09/18 08:50:08;;;;;;;7.37;5.40;;;19.10;99.90;;;;;;5054185;28;20495;-73
2021/09/18 08:52:36;;;;;;;6.20;5.70;;;19.20;99.90;;;;;;5061686;28;20459;-75
2021/09/18 08:55:03;;;;;;;7.13;6.43;;;19.30;99.90;;;;;;5070146;28;20462;-74
2021/09/18 08:57:30;;;;;;;6.30;5.70;;;19.40;99.90;;;;;;5069999;28;20483;-75
2021/09/18 08:59:56;;;;;;;6.20;5.63;;;19.50;99.90;;;;;;5070108;28;20458;-75
2021/09/18 09:02:26;;;;;;;8.00;6.20;;;19.60;99.90;;;;;;5070174;28;20486;-75
2021/09/18 09:05:03;;;;;;;6.60;6.00;;;19.60;99.90;;;;;;5068485;28;20805;-74
2021/09/18 09:07:29;;;;;;;6.63;5.93;;;19.80;99.90;;;;;;5070266;28;20482;-75
2021/09/18 09:09:59;;;;;;;6.53;5.90;;;19.80;99.90;;;;;;5069549;28;20879;-75
2021/09/18 09:12:31;;;;;;;6.87;6.20;;;20.00;99.90;;;;;;5070094;28;20470;-75
2021/09/18 09:14:59;;;;;;;8.20;5.70;;;20.10;99.90;;;;;;5069315;28;20459;-75
2021/09/18 09:17:29;;;;;;;7.00;6.33;;;20.10;99.90;;;;;;5069906;28;20481;-75
2021/09/18 09:19:56;;;;;;;6.27;5.57;;;20.20;99.90;;;;;;5070069;28;20541;-75
2021/09/18 09:22:42;;;;;;;5.90;5.40;;;20.20;99.90;;;;;;5073310;28;20511;-75
2021/09/18 09:28:24;;;;;;;7.80;7.00;;;20.30;99.90;;;;;;5100148;27;20550;-76
2021/09/18 09:30:52;;;;;;;7.07;5.53;;;20.50;99.90;;;;;;5067558;28;20467;-76
2021/09/18 09:33:19;;;;;;;8.70;6.67;;;20.70;99.90;;;;;;5067401;28;20493;-74
2021/09/18 09:35:46;;;;;;;6.37;5.70;;;20.80;99.90;;;;;;5066771;28;20470;-74
2021/09/18 09:38:13;;;;;;;7.60;5.67;;;20.80;99.90;;;;;;5067571;28;20478;-74
2021/09/18 09:40:42;;;;;;;6.50;5.63;;;21.00;99.90;;;;;;5067194;28;20463;-74
2021/09/18 09:43:13;;;;;;;5.63;5.13;;;21.00;99.90;;;;;;5067138;28;20469;-74
2021/09/18 09:45:41;;;;;;;5.20;4.80;;;21.10;99.90;;;;;;5083811;28;20945;-74
2021/09/18 09:48:10;;;;;;;6.90;4.30;;;21.20;99.90;;;;;;5087610;28;20493;-74
2021/09/18 09:50:39;;;;;;;5.30;4.60;;;21.30;99.90;;;;;;5086548;28;20485;-74
2021/09/18 09:53:07;;;;;;;6.07;4.23;;;21.30;99.90;;;;;;5086321;28;20557;-74
2021/09/18 09:55:38;;;;;;;4.40;4.00;;;21.40;99.90;;;;;;5086939;28;20468;-75
2021/09/18 09:58:06;;;;;;;5.63;3.77;;;21.50;99.90;;;;;;5086731;28;20484;-74
2021/09/18 10:00:43;;;;;;;4.10;3.70;;;21.60;99.90;;;;;;5087366;28;20458;-75
2021/09/18 10:03:11;;;;;;;3.23;2.93;;;21.70;99.90;;;;;;5086946;28;20457;-74
2021/09/18 10:05:38;;;;;;;3.63;3.00;;;21.80;99.90;;;;;;5087439;28;20461;-76
2021/09/18 10:08:06;;;;;;;4.20;3.20;;;21.90;99.90;;;;;;5087163;28;20496;-76
2021/09/18 10:10:34;;;;;;;3.40;3.10;;;22.00;99.90;;;;;;5087620;28;20988;-76
2021/09/18 10:13:01;;;;;;;4.13;3.63;;;22.00;99.90;;;;;;5087125;28;20458;-76
2021/09/18 10:15:30;;;;;;;3.67;3.20;;;22.10;99.90;;;;;;5087115;28;20466;-75
2021/09/18 10:18:00;;;;;;;4.10;3.00;;;22.10;99.90;;;;;;5086629;28;21020;-75
2021/09/18 10:23:17;;;;;;;3.27;2.97;;;22.30;99.90;;;;;;5052147;28;20464;-73
2021/09/18 10:25:47;;;;;;;3.90;3.30;;;22.50;99.90;;;;;;5086137;28;20553;-73
2021/09/18 10:28:17;;;;;;;3.20;2.90;;;22.60;99.90;;;;;;5086438;28;21040;-73
2021/09/18 10:30:45;;;;;;;2.80;2.60;;;22.70;99.90;;;;;;5086655;28;20464;-73
2021/09/18 10:33:38;;;;;;;3.10;2.80;;;22.70;99.90;;;;;;5083719;28;20458;-73
2021/09/18 10:36:09;;;;;;;2.80;2.60;;;22.80;99.90;;;;;;5068216;28;20949;-73
2021/09/18 10:38:39;;;;;;;3.73;2.60;;;22.90;99.90;;;;;;5076651;28;20470;-73
2021/09/18 10:41:09;;;;;;;3.10;2.23;;;23.00;99.90;;;;;;5072262;28;20461;-73
2021/09/18 10:43:38;;;;;;;2.23;1.83;;;22.90;99.90;;;;;;5072484;28;20825;-73
2021/09/18 10:46:10;;;;;;;2.30;2.10;;;23.00;99.90;;;;;;5071569;28;20465;-73
2021/09/18 10:48:49;;;;;;;4.70;2.20;;;23.10;99.90;;;;;;5072416;28;20485;-73
2021/09/18 10:51:38;;;;;;;2.37;2.10;;;23.20;99.90;;;;;;5072275;28;20874;-73
2021/09/18 10:54:13;;;;;;;1.60;1.50;;;23.40;99.90;;;;;;5072209;28;21165;-73
2021/09/18 10:56:59;;;;;;;2.30;2.10;;;23.60;99.90;;;;;;5071353;28;20457;-73
2021/09/18 10:59:50;;;;;;;1.60;1.50;;;23.90;99.90;;;;;;5072084;28;20992;-73
2021/09/18 11:02:44;;;;;;;2.37;2.17;;;24.00;99.90;;;;;;5071985;28;20462;-73
2021/09/18 11:05:47;;;;;;;2.27;1.97;;;24.20;99.90;;;;;;5071510;28;20451;-73
2021/09/18 11:08:30;;;;;;;2.07;1.87;;;24.30;99.90;;;;;;5069809;28;20478;-73
2021/09/18 11:10:59;;;;;;;1.83;1.73;;;24.30;99.90;;;;;;5062653;28;20814;-73
2021/09/18 11:13:32;;;;;;;2.40;2.17;;;24.30;99.90;;;;;;5059603;28;20918;-73
2021/09/18 11:16:00;;;;;;;1.97;1.70;;;24.20;99.90;;;;;;5068664;28;20823;-73
2021/09/18 11:18:35;;;;;;;1.90;1.80;;;24.20;99.90;;;;;;5058500;28;20840;-73
2021/09/18 11:21:17;;;;;;;1.83;1.73;;;24.30;99.90;;;;;;5054420;28;20509;-73
2021/09/18 11:23:48;;;;;;;2.13;1.97;;;24.50;99.90;;;;;;5069085;28;20458;-73
2021/09/18 11:26:38;;;;;;;1.80;1.70;;;24.60;99.90;;;;;;5070557;28;21005;-73
2021/09/18 11:29:23;;;;;;;2.60;2.30;;;24.70;99.90;;;;;;5067089;28;21003;-73
2021/09/18 11:31:57;;;;;;;2.10;1.90;;;24.60;99.90;;;;;;5052206;28;20464;-73
2021/09/18 11:34:25;;;;;;;2.00;1.80;;;24.60;99.90;;;;;;5070200;28;20572;-73
2021/09/18 11:36:53;;;;;;;2.20;2.00;;;24.80;99.90;;;;;;5071569;28;20493;-73
2021/09/18 11:39:37;;;;;;;2.60;2.40;;;25.00;99.90;;;;;;5072160;28;20478;-74
2021/09/18 11:42:19;;;;;;;3.03;2.47;;;25.20;99.90;;;;;;5072210;28;20455;-73
2021/09/18 11:44:47;;;;;;;2.60;2.00;;;25.30;99.90;;;;;;5071331;28;20462;-73
2021/09/18 11:47:20;;;;;;;2.27;2.13;;;25.50;99.90;;;;;;5071252;28;20497;-73
2021/09/18 11:49:47;;;;;;;2.50;2.30;;;25.40;99.90;;;;;;5067301;28;20462;-73
2021/09/18 11:52:14;;;;;;;3.63;2.57;;;25.40;99.90;;;;;;5071791;28;20466;-73
2021/09/18 11:54:42;;;;;;;5.80;2.50;;;25.40;99.90;;;;;;5071205;28;20462;-73
2021/09/18 11:57:14;;;;;;;2.90;2.70;;;25.40;99.90;;;;;;5071278;28;20454;-73
2021/09/18 11:59:41;;;;;;;2.67;2.47;;;25.30;99.90;;;;;;5071517;28;20466;-73
2021/09/18 12:02:07;;;;;;;2.40;2.20;;;25.30;99.90;;;;;;5071683;28;20539;-73
2021/09/18 12:04:40;;;;;;;2.47;2.27;;;25.20;99.90;;;;;;5069448;28;20954;-73
2021/09/18 12:07:07;;;;;;;2.83;2.63;;;25.30;99.90;;;;;;5070640;28;20482;-76
2021/09/18 12:09:34;;;;;;;2.50;2.30;;;25.40;99.90;;;;;;5071475;28;20459;-74
2021/09/18 12:12:03;;;;;;;2.90;2.40;;;25.40;99.90;;;;;;5071213;28;20490;-74
2021/09/18 12:14:31;;;;;;;2.90;2.20;;;25.40;99.90;;;;;;5071064;28;20465;-74
2021/09/18 12:16:58;;;;;;;2.30;2.07;;;25.40;99.90;;;;;;5070538;28;20457;-74
2021/09/18 12:19:24;;;;;;;2.40;2.20;;;25.40;99.90;;;;;;5070917;28;20478;-73
2021/09/18 12:21:51;;;;;;;2.20;2.00;;;25.50;99.90;;;;;;5071202;28;20467;-74
2021/09/18 12:24:21;;;;;;;2.43;2.23;;;25.40;99.90;;;;;;5071068;28;20458;-74
2021/09/18 12:26:48;;;;;;;7.23;2.57;;;25.40;99.90;;;;;;5070367;28;20538;-73
2021/09/18 12:29:18;;;;;;;2.97;2.77;;;25.60;99.90;;;;;;5071061;28;20482;-73
2021/09/18 12:31:47;;;;;;;2.87;2.03;;;25.80;99.90;;;;;;5070935;28;20466;-74
2021/09/18 12:34:17;;;;;;;2.93;2.73;;;26.00;99.90;;;;;;5071012;28;20462;-73
2021/09/18 12:36:45;;;;;;;2.60;2.40;;;26.30;99.90;;;;;;5070344;28;20462;-74
2021/09/18 12:39:13;;;;;;;2.10;1.90;;;26.50;99.90;;;;;;5070785;28;20486;-73
2021/09/18 12:41:42;;;;;;;2.47;2.27;;;26.70;99.90;;;;;;5071213;28;20545;-73
2021/09/18 12:44:11;;;;;;;3.40;3.10;;;26.70;99.90;;;;;;5070960;28;20489;-76
2021/09/18 12:46:42;;;;;;;3.07;2.80;;;26.80;99.90;;;;;;5070553;28;20459;-76
2021/09/18 12:49:09;;;;;;;3.00;2.80;;;26.90;99.90;;;;;;5070532;28;20494;-74
2021/09/18 12:51:38;;;;;;;3.60;3.17;;;27.00;99.90;;;;;;5070970;28;20466;-75
2021/09/18 12:54:06;;;;;;;3.67;3.37;;;27.10;99.90;;;;;;5070604;28;20478;-76
2021/09/18 12:56:35;;;;;;;5.43;3.50;;;27.00;99.90;;;;;;5066723;28;20463;-73
2021/09/18 12:59:14;;;;;;;4.13;3.33;;;26.90;99.90;;;;;;5067151;28;20491;-73
2021/09/18 13:01:45;;;;;;;5.70;3.40;;;26.60;99.90;;;;;;5069086;28;20876;-74
2021/09/18 13:04:15;;;;;;;2.80;2.60;;;26.30;99.90;;;;;;5068966;28;20557;-74